createdAt,value
2018-08-10T00:01:01.189Z,95921.6
2018-08-10T00:02:03.354Z,95921.6
2018-08-10T00:03:05.227Z,95922.7
2018-08-10T00:04:07.134Z,95916.6
2018-08-10T00:05:09.013Z,95921.1
2018-08-10T00:06:11.191Z,95918.4
2018-08-10T00:07:13.094Z,95915.4
2018-08-10T00:08:14.702Z,95920.9
2018-08-10T00:09:16.866Z,95924.5
2018-08-10T00:10:18.796Z,95925.1
2018-08-10T00:11:20.991Z,95927.1
2018-08-10T00:12:23.427Z,95927.3
2018-08-10T00:13:25.893Z,95929.3
2018-08-10T00:14:28.073Z,95928.4
2018-08-10T00:15:30.237Z,95933.8
2018-08-10T00:16:32.417Z,95933.9
2018-08-10T00:17:34.870Z,95936.5
2018-08-10T00:18:36.770Z,95939.6
2018-08-10T00:19:39.215Z,95939
2018-08-10T00:20:41.667Z,95934.4
2018-08-10T00:21:43.856Z,95936
2018-08-10T00:22:46.315Z,95936.5
2018-08-10T00:23:48.767Z,95932.7
2018-08-10T00:24:50.369Z,95933.2
2018-08-10T00:25:52.824Z,95933.5
2018-08-10T00:26:55.005Z,95937
2018-08-10T00:27:57.173Z,95932.6
2018-08-10T00:28:59.618Z,95936.9
2018-08-10T00:30:02.065Z,95942.5
2018-08-10T00:31:04.228Z,95942.3
2018-08-10T00:32:06.411Z,95948.3
2018-08-10T00:33:08.877Z,95952
2018-08-10T00:34:11.060Z,95949.1
2018-08-10T00:35:13.254Z,95952.3
2018-08-10T00:36:14.884Z,95951.7
2018-08-10T00:37:17.052Z,95951.7
2018-08-10T00:38:19.512Z,95950.8
2018-08-10T00:39:21.668Z,95952.2
2018-08-10T00:40:23.845Z,95954
2018-08-10T00:41:26.038Z,95950.2
2018-08-10T00:42:28.494Z,95952.4
2018-08-10T00:43:30.443Z,95954.4
2018-08-10T00:44:32.887Z,95953.8
2018-08-10T00:45:35.335Z,95953.1
2018-08-10T00:46:37.783Z,95947.2
2018-08-10T00:47:39.969Z,95946.9
2018-08-10T00:48:42.112Z,95945.8
2018-08-10T00:49:44.557Z,95941.5
2018-08-10T00:50:46.740Z,95941.4
2018-08-10T00:51:49.176Z,95939.2
2018-08-10T00:52:51.617Z,95938.4
2018-08-10T00:53:53.801Z,95943
2018-08-10T00:54:55.979Z,95942.5
2018-08-10T00:55:58.433Z,95942.2
2018-08-10T00:57:00.878Z,95943.5
2018-08-10T00:58:02.760Z,95945.8
2018-08-10T00:59:05.202Z,95948.6
2018-08-10T01:00:07.098Z,95949.8
2018-08-10T01:01:09.283Z,95947.8
2018-08-10T01:02:11.716Z,95953.3
2018-08-10T01:03:13.911Z,95951.5
2018-08-10T01:04:16.093Z,95951.1
2018-08-10T01:05:18.538Z,95956
2018-08-10T01:06:20.989Z,95951.9
2018-08-10T01:07:23.161Z,95955.5
2018-08-10T01:08:25.604Z,95953.4
2018-08-10T01:09:27.787Z,95955.7
2018-08-10T01:10:29.679Z,95955.2
2018-08-10T01:11:31.846Z,95956.3
2018-08-10T01:12:34.033Z,95952.1
2018-08-10T01:13:36.759Z,95954.1
2018-08-10T01:14:39.075Z,95948.8
2018-08-10T01:15:41.522Z,95948.1
2018-08-10T01:16:43.961Z,95948
2018-08-10T01:17:46.411Z,95949
2018-08-10T01:18:48.865Z,95948.8
2018-08-10T01:19:51.313Z,95946.7
2018-08-10T01:20:53.495Z,95949
2018-08-10T01:21:55.113Z,95946.8
2018-08-10T01:22:57.288Z,95951.1
2018-08-10T01:23:59.747Z,95950.1
2018-08-10T01:25:01.934Z,95952.6
2018-08-10T01:26:04.369Z,95949.8
2018-08-10T01:27:06.548Z,95950.3
2018-08-10T01:28:08.996Z,95951.1
2018-08-10T01:29:11.173Z,95952.9
2018-08-10T01:30:13.658Z,95955.1
2018-08-10T01:31:16.102Z,95957.7
2018-08-10T01:32:18.283Z,95958.3
2018-08-10T01:33:20.461Z,95956.7
2018-08-10T01:34:22.915Z,95958.9
2018-08-10T01:35:25.357Z,95956.4
2018-08-10T01:36:27.810Z,95959.2
2018-08-10T01:37:29.989Z,95961.5
2018-08-10T01:38:32.427Z,95961.5
2018-08-10T01:39:34.612Z,95964.5
2018-08-10T01:40:37.057Z,95963
2018-08-10T01:41:39.506Z,95965
2018-08-10T01:42:41.684Z,95964.2
2018-08-10T01:43:44.119Z,95968.9
2018-08-10T01:44:46.305Z,95970.5
2018-08-10T01:45:47.932Z,95971.1
2018-08-10T01:46:50.148Z,95971.3
2018-08-10T01:47:52.338Z,95972.6
2018-08-10T01:48:54.784Z,95971.9
2018-08-10T01:49:56.942Z,95974.1
2018-08-10T01:50:58.849Z,95979.2
2018-08-10T01:52:00.995Z,95974.9
2018-08-10T01:53:02.898Z,95975.9
2018-08-10T01:54:05.373Z,95981
2018-08-10T01:55:07.540Z,95977.6
2018-08-10T01:56:09.719Z,95979.5
2018-08-10T01:57:12.180Z,95982
2018-08-10T01:58:14.358Z,95977.9
2018-08-10T01:59:16.499Z,95973.4
2018-08-10T02:00:18.688Z,95974.3
2018-08-10T02:01:20.868Z,95979.4
2018-08-10T02:02:23.054Z,95980.7
2018-08-10T02:03:25.502Z,95983
2018-08-10T02:04:27.380Z,95980.5
2018-08-10T02:05:29.848Z,95981.7
2018-08-10T02:06:32.287Z,95982.3
2018-08-10T02:07:34.718Z,95983.7
2018-08-10T02:08:37.160Z,95984.2
2018-08-10T02:09:39.336Z,95980.6
2018-08-10T02:10:41.514Z,95984.3
2018-08-10T02:11:43.690Z,95979.6
2018-08-10T02:12:45.612Z,95983.5
2018-08-10T02:13:47.809Z,95982.5
2018-08-10T02:14:49.701Z,95988.9
2018-08-10T02:15:51.867Z,95986.7
2018-08-10T02:16:53.788Z,95984.7
2018-08-10T02:17:55.961Z,95988
2018-08-10T02:18:57.846Z,95986.5
2018-08-10T02:20:00.278Z,95982.8
2018-08-10T02:21:02.732Z,95988.5
2018-08-10T02:22:05.171Z,95984.9
2018-08-10T02:23:07.354Z,95985.5
2018-08-10T02:24:09.797Z,95979.6
2018-08-10T02:25:12.245Z,95982.6
2018-08-10T02:26:14.406Z,95980.3
2018-08-10T02:27:16.333Z,95978.9
2018-08-10T02:28:18.793Z,95978.9
2018-08-10T02:29:21.270Z,95984.3
2018-08-10T02:30:23.442Z,95980.5
2018-08-10T02:31:25.881Z,95979.2
2018-08-10T02:32:28.068Z,95980.2
2018-08-10T02:33:30.520Z,95977.4
2018-08-10T02:34:32.764Z,95975.1
2018-08-10T02:35:35.209Z,95976.9
2018-08-10T02:36:37.399Z,95976.1
2018-08-10T02:37:39.840Z,95975.1
2018-08-10T02:38:42.015Z,95976.3
2018-08-10T02:39:44.189Z,95977.5
2018-08-10T02:40:46.687Z,95971.8
2018-08-10T02:41:49.141Z,95975.2
2018-08-10T02:42:51.319Z,95975.1
2018-08-10T02:43:53.466Z,95976
2018-08-10T02:44:55.649Z,95973.7
2018-08-10T02:45:57.836Z,95971.9
2018-08-10T02:47:00.298Z,95971.6
2018-08-10T02:48:02.204Z,95975
2018-08-10T02:49:04.098Z,95975.7
2018-08-10T02:50:06.254Z,95976.5
2018-08-10T02:51:08.708Z,95976.5
2018-08-10T02:52:11.158Z,95977
2018-08-10T02:53:13.602Z,95978.4
2018-08-10T02:54:16.036Z,95982.1
2018-08-10T02:55:18.481Z,95987.2
2018-08-10T02:56:20.939Z,95985.8
2018-08-10T02:57:22.831Z,95982.9
2018-08-10T02:58:25.282Z,95983.1
2018-08-10T02:59:27.456Z,95986.2
2018-08-10T03:00:29.632Z,95979.7
2018-08-10T03:01:31.559Z,95981.2
2018-08-10T03:02:34.012Z,95978
2018-08-10T03:03:36.459Z,95980.8
2018-08-10T03:04:38.320Z,95980.9
2018-08-10T03:05:40.502Z,95981.8
2018-08-10T03:06:42.937Z,95981.6
2018-08-10T03:07:45.407Z,95980.5
2018-08-10T03:08:47.579Z,95976.2
2018-08-10T03:09:50.038Z,95982.5
2018-08-10T03:10:52.499Z,95980.8
2018-08-10T03:11:54.687Z,95981.3
2018-08-10T03:12:56.839Z,95979.8
2018-08-10T03:13:59.021Z,95979.5
2018-08-10T03:15:01.212Z,95981.4
2018-08-10T03:16:03.404Z,95985.1
2018-08-10T03:17:05.846Z,95983.9
2018-08-10T03:18:08.297Z,95986.1
2018-08-10T03:19:10.190Z,95985.6
2018-08-10T03:20:12.647Z,95985.3
2018-08-10T03:21:14.799Z,95984.9
2018-08-10T03:22:17.813Z,95985.8
2018-08-10T03:23:19.734Z,95984.2
2018-08-10T03:24:21.997Z,95984.9
2018-08-10T03:25:24.146Z,95982.9
2018-08-10T03:26:26.608Z,95977.2
2018-08-10T03:27:28.776Z,95978.6
2018-08-10T03:28:30.947Z,95980.4
2018-08-10T03:29:33.386Z,95981.1
2018-08-10T03:30:35.542Z,95982.2
2018-08-10T03:31:37.459Z,95989.3
2018-08-10T03:32:39.593Z,95985.2
2018-08-10T03:33:42.043Z,95986.6
2018-08-10T03:34:43.936Z,95987.8
2018-08-10T03:35:46.377Z,95994.1
2018-08-10T03:36:48.013Z,95990.2
2018-08-10T03:37:50.204Z,95993.4
2018-08-10T03:38:52.375Z,95995.8
2018-08-10T03:39:54.823Z,96002.4
2018-08-10T03:40:56.741Z,96002.6
2018-08-10T03:41:59.185Z,96004.4
2018-08-10T03:43:01.092Z,96006.1
2018-08-10T03:44:03.555Z,96004.8
2018-08-10T03:45:05.702Z,96009.1
2018-08-10T03:46:08.153Z,96002.3
2018-08-10T03:47:10.596Z,96007.8
2018-08-10T03:48:13.039Z,96003.5
2018-08-10T03:49:14.945Z,96008.8
2018-08-10T03:50:16.852Z,96009.5
2018-08-10T03:51:18.483Z,96012.4
2018-08-10T03:52:20.919Z,96014.3
2018-08-10T03:53:23.107Z,96017.7
2018-08-10T03:54:25.023Z,96020.3
2018-08-10T03:55:27.211Z,96020.4
2018-08-10T03:56:29.386Z,96024.5
2018-08-10T03:57:31.573Z,96025
2018-08-10T03:58:33.745Z,96023.9
2018-08-10T03:59:35.915Z,96026.6
2018-08-10T04:00:38.355Z,96026.1
2018-08-10T04:01:40.546Z,96023.7
2018-08-10T04:02:42.735Z,96026.3
2018-08-10T04:03:45.177Z,96027.1
2018-08-10T04:04:46.825Z,96031
2018-08-10T04:05:49.264Z,96025.2
2018-08-10T04:06:51.406Z,96029.9
2018-08-10T04:07:53.292Z,96027.6
2018-08-10T04:08:55.485Z,96027.2
2018-08-10T04:09:57.938Z,96029.5
2018-08-10T04:11:00.375Z,96030.7
2018-08-10T04:12:02.850Z,96036.9
2018-08-10T04:13:05.293Z,96035.8
2018-08-10T04:14:07.747Z,96035.2
2018-08-10T04:15:09.926Z,96036.1
2018-08-10T04:16:12.367Z,96032.2
2018-08-10T04:17:13.996Z,96032.6
2018-08-10T04:18:16.177Z,96038.3
2018-08-10T04:19:18.055Z,96041.7
2018-08-10T04:20:20.244Z,96040.7
2018-08-10T04:21:22.690Z,96040.6
2018-08-10T04:22:24.870Z,96045
2018-08-10T04:23:27.314Z,96048.9
2018-08-10T04:24:29.762Z,96048.3
2018-08-10T04:25:31.934Z,96049.2
2018-08-10T04:26:34.392Z,96052.5
2018-08-10T04:27:36.297Z,96054.1
2018-08-10T04:28:38.742Z,96051.1
2018-08-10T04:29:41.588Z,96052.3
2018-08-10T04:30:44.099Z,96056.3
2018-08-10T04:31:46.568Z,96054.9
2018-08-10T04:32:48.725Z,96059.3
2018-08-10T04:33:51.182Z,96062
2018-08-10T04:34:53.368Z,96061.8
2018-08-10T04:35:55.841Z,96061.9
2018-08-10T04:36:57.760Z,96062
2018-08-10T04:38:00.197Z,96062.8
2018-08-10T04:39:02.650Z,96065.3
2018-08-10T04:40:04.835Z,96062.6
2018-08-10T04:41:06.717Z,96064.9
2018-08-10T04:42:09.171Z,96069.6
2018-08-10T04:43:11.649Z,96071.6
2018-08-10T04:44:13.556Z,96072.4
2018-08-10T04:45:15.730Z,96066.2
2018-08-10T04:46:18.217Z,96070.2
2018-08-10T04:47:20.659Z,96068.6
2018-08-10T04:48:23.124Z,96066.4
2018-08-10T04:49:25.601Z,96065.5
2018-08-10T04:50:27.786Z,96066.5
2018-08-10T04:51:30.241Z,96066.1
2018-08-10T04:52:32.404Z,96071.2
2018-08-10T04:53:34.846Z,96070.1
2018-08-10T04:54:37.288Z,96071.5
2018-08-10T04:55:39.739Z,96068.5
2018-08-10T04:56:41.926Z,96070.2
2018-08-10T04:57:44.070Z,96076.3
2018-08-10T04:58:46.266Z,96070.5
2018-08-10T04:59:48.445Z,96076.1
2018-08-10T05:00:50.329Z,96076.1
2018-08-10T05:01:52.765Z,96079.8
2018-08-10T05:02:54.692Z,96078.6
2018-08-10T05:03:56.846Z,96080.6
2018-08-10T05:04:59.293Z,96078.6
2018-08-10T05:06:01.472Z,96083.3
2018-08-10T05:07:03.086Z,96088.2
2018-08-10T05:08:05.528Z,96085.1
2018-08-10T05:09:07.720Z,96092.1
2018-08-10T05:10:09.911Z,96092.6
2018-08-10T05:11:11.568Z,96096.7
2018-08-10T05:12:13.446Z,96097.1
2018-08-10T05:13:15.893Z,96096.5
2018-08-10T05:14:18.362Z,96097.9
2018-08-10T05:15:20.543Z,96100.8
2018-08-10T05:16:22.993Z,96103.3
2018-08-10T05:17:25.443Z,96111.2
2018-08-10T05:18:27.330Z,96118
2018-08-10T05:19:29.783Z,96128.2
2018-08-10T05:20:31.941Z,96130.2
2018-08-10T05:21:34.411Z,96139.2
2018-08-10T05:22:37.529Z,96136.9
2018-08-10T05:23:39.887Z,96134.1
2018-08-10T05:24:42.349Z,96137.3
2018-08-10T05:25:43.981Z,96136.5
2018-08-10T05:26:46.450Z,96137.5
2018-08-10T05:27:48.632Z,96138.8
2018-08-10T05:28:51.089Z,96141.6
2018-08-10T05:29:53.590Z,96146.3
2018-08-10T05:30:55.781Z,96149.1
2018-08-10T05:31:58.230Z,96151.5
2018-08-10T05:33:00.689Z,96147.2
2018-08-10T05:34:02.827Z,96151.8
2018-08-10T05:35:05.284Z,96149.3
2018-08-10T05:36:07.457Z,96155.5
2018-08-10T05:37:08.817Z,96152.5
2018-08-10T05:38:11.019Z,96156.3
2018-08-10T05:39:13.557Z,96162.6
2018-08-10T05:40:15.806Z,96164.5
2018-08-10T05:41:17.827Z,96171.1
2018-08-10T05:42:20.012Z,96176.8
2018-08-10T05:43:22.460Z,96180.9
2018-08-10T05:44:24.347Z,96182.6
2018-08-10T05:45:26.244Z,96181.4
2018-08-10T05:46:29.330Z,96180.6
2018-08-10T05:47:31.711Z,96183.4
2018-08-10T05:48:33.524Z,96183.5
2018-08-10T05:49:36.069Z,96187.5
2018-08-10T05:50:37.986Z,96186.1
2018-08-10T05:51:40.450Z,96192.2
2018-08-10T05:52:42.904Z,96190.7
2018-08-10T05:53:45.075Z,96192.7
2018-08-10T05:54:47.529Z,96196.8
2018-08-10T05:55:49.437Z,96196.3
2018-08-10T05:56:51.626Z,96200.8
2018-08-10T05:57:53.523Z,96200.9
2018-08-10T05:58:55.695Z,96199.3
2018-08-10T05:59:57.610Z,96199.7
2018-08-10T06:00:59.522Z,96198.4
2018-08-10T06:02:01.963Z,96199.5
2018-08-10T06:03:04.427Z,96201.1
2018-08-10T06:04:07.227Z,96204.9
2018-08-10T06:05:09.633Z,96204.1
2018-08-10T06:06:11.547Z,96199.6
2018-08-10T06:07:14.037Z,96207.9
2018-08-10T06:08:16.488Z,96207.7
2018-08-10T06:09:18.397Z,96208
2018-08-10T06:10:20.273Z,96209
2018-08-10T06:11:22.209Z,96209.9
2018-08-10T06:12:24.652Z,96211.8
2018-08-10T06:13:27.100Z,96208.5
2018-08-10T06:14:29.550Z,96215.1
2018-08-10T06:15:32.362Z,96220.2
2018-08-10T06:16:34.719Z,96218.8
2018-08-10T06:17:37.184Z,96220.1
2018-08-10T06:18:39.319Z,96221.7
2018-08-10T06:19:42.632Z,96220.6
2018-08-10T06:20:44.860Z,96224.1
2018-08-10T06:21:47.268Z,96229
2018-08-10T06:22:49.929Z,96227.7
2018-08-10T06:23:52.468Z,96229.4
2018-08-10T06:24:55.061Z,96231.8
2018-08-10T06:25:57.585Z,96230
2018-08-10T06:26:59.496Z,96233.3
2018-08-10T06:28:01.956Z,96235.9
2018-08-10T06:29:04.415Z,96237.4
2018-08-10T06:30:06.605Z,96239.1
2018-08-10T06:31:08.798Z,96244.4
2018-08-10T06:32:10.975Z,96243.4
2018-08-10T06:33:12.867Z,96246.4
2018-08-10T06:34:15.733Z,96244.6
2018-08-10T06:35:18.328Z,96244.9
2018-08-10T06:36:20.499Z,96249.3
2018-08-10T06:37:22.108Z,96251.2
2018-08-10T06:38:24.297Z,96246.8
2018-08-10T06:39:26.452Z,96247.5
2018-08-10T06:40:28.369Z,96250.1
2018-08-10T06:41:30.572Z,96253.8
2018-08-10T06:42:32.720Z,96257.7
2018-08-10T06:43:34.910Z,96256.8
2018-08-10T06:44:37.080Z,96256.5
2018-08-10T06:45:38.987Z,96260.5
2018-08-10T06:46:41.430Z,96258
2018-08-10T06:47:43.596Z,96261.5
2018-08-10T06:48:46.064Z,96263.8
2018-08-10T06:49:48.259Z,96263.2
2018-08-10T06:50:50.439Z,96269.3
2018-08-10T06:51:52.336Z,96271.5
2018-08-10T06:52:54.525Z,96280.3
2018-08-10T06:53:56.714Z,96281.1
2018-08-10T06:54:58.611Z,96281.1
2018-08-10T06:56:00.901Z,96287.3
2018-08-10T06:57:03.253Z,96288.3
2018-08-10T06:58:05.441Z,96288.3
2018-08-10T06:59:07.583Z,96291
2018-08-10T07:00:09.448Z,96290.7
2018-08-10T07:01:12.065Z,96296.3
2018-08-10T07:02:14.527Z,96291.2
2018-08-10T07:03:16.980Z,96293.4
2018-08-10T07:04:19.435Z,96296.9
2018-08-10T07:05:21.881Z,96299.7
2018-08-10T07:06:24.332Z,96301.2
2018-08-10T07:07:27.019Z,96305.5
2018-08-10T07:08:28.960Z,96305.5
2018-08-10T07:09:31.108Z,96303.5
2018-08-10T07:10:33.582Z,96304.9
2018-08-10T07:11:36.215Z,96306.3
2018-08-10T07:12:38.778Z,96310.1
2018-08-10T07:13:41.764Z,96309.9
2018-08-10T07:14:43.810Z,96315.6
2018-08-10T07:15:46.249Z,96316.8
2018-08-10T07:16:48.192Z,96317.3
2018-08-10T07:17:50.369Z,96320.3
2018-08-10T07:18:52.814Z,96321.4
2018-08-10T07:19:54.987Z,96322.7
2018-08-10T07:20:57.432Z,96328.6
2018-08-10T07:21:59.620Z,96334.6
2018-08-10T07:23:01.834Z,96334.6
2018-08-10T07:24:04.278Z,96335
2018-08-10T07:25:06.729Z,96335.5
2018-08-10T07:26:09.177Z,96338.4
2018-08-10T07:27:12.156Z,96337.7
2018-08-10T07:28:14.858Z,96339.4
2018-08-10T07:29:16.800Z,96344.7
2018-08-10T07:30:18.995Z,96343.9
2018-08-10T07:31:21.452Z,96347.4
2018-08-10T07:32:23.905Z,96345.3
2018-08-10T07:33:25.788Z,96346.3
2018-08-10T07:34:28.229Z,96351.3
2018-08-10T07:35:30.382Z,96348.5
2018-08-10T07:36:32.836Z,96351.2
2018-08-10T07:37:35.015Z,96346.8
2018-08-10T07:38:37.933Z,96347.6
2018-08-10T07:39:40.601Z,96348
2018-08-10T07:40:43.050Z,96348.3
2018-08-10T07:41:44.958Z,96349.3
2018-08-10T07:42:46.558Z,96348
2018-08-10T07:43:49.006Z,96345.8
2018-08-10T07:44:51.463Z,96344.7
2018-08-10T07:45:53.643Z,96342.7
2018-08-10T07:46:56.087Z,96347.5
2018-08-10T07:47:58.557Z,96345.3
2018-08-10T07:49:00.997Z,96343.2
2018-08-10T07:50:03.216Z,96344.4
2018-08-10T07:51:05.419Z,96347.5
2018-08-10T07:52:07.722Z,96346.7
2018-08-10T07:53:10.006Z,96348.2
2018-08-10T07:54:12.188Z,96354.6
2018-08-10T07:55:14.342Z,96356.9
2018-08-10T07:56:16.524Z,96353.5
2018-08-10T07:57:18.965Z,96352.1
2018-08-10T07:58:21.141Z,96363.4
2018-08-10T07:59:23.598Z,96359.4
2018-08-10T08:00:26.050Z,96362.5
2018-08-10T08:01:27.950Z,96362.5
2018-08-10T08:02:30.415Z,96365.3
2018-08-10T08:03:32.606Z,96364.8
2018-08-10T08:04:34.549Z,96369.6
2018-08-10T08:05:36.738Z,96371.9
2018-08-10T08:06:39.181Z,96370
2018-08-10T08:07:41.632Z,96368.9
2018-08-10T08:08:44.090Z,96372.7
2018-08-10T08:09:46.529Z,96374.5
2018-08-10T08:10:48.706Z,96366.6
2018-08-10T08:11:50.335Z,96370.7
2018-08-10T08:12:52.774Z,96374.4
2018-08-10T08:13:54.948Z,96373
2018-08-10T08:14:57.151Z,96373.1
2018-08-10T08:15:59.350Z,96377.7
2018-08-10T08:17:01.243Z,96375.5
2018-08-10T08:18:04.122Z,96376
2018-08-10T08:19:06.884Z,96373.2
2018-08-10T08:20:09.071Z,96378.6
2018-08-10T08:21:10.987Z,96379.5
2018-08-10T08:22:13.158Z,96384.9
2018-08-10T08:23:15.617Z,96388.4
2018-08-10T08:24:18.060Z,96388.3
2018-08-10T08:25:20.239Z,96391.8
2018-08-10T08:26:22.678Z,96386.8
2018-08-10T08:27:24.602Z,96392
2018-08-10T08:28:26.524Z,96394.4
2018-08-10T08:29:28.697Z,96395.6
2018-08-10T08:30:31.146Z,96397.6
2018-08-10T08:31:33.305Z,96397.6
2018-08-10T08:32:35.763Z,96400.2
2018-08-10T08:33:37.964Z,96395.7
2018-08-10T08:34:40.787Z,96397.1
2018-08-10T08:35:42.574Z,96396
2018-08-10T08:36:45.023Z,96395.5
2018-08-10T08:37:47.514Z,96399
2018-08-10T08:38:49.698Z,96403.4
2018-08-10T08:39:52.151Z,96405.8
2018-08-10T08:40:54.370Z,96402.9
2018-08-10T08:41:56.818Z,96403.3
2018-08-10T08:42:58.540Z,96404.3
2018-08-10T08:44:00.981Z,96403.6
2018-08-10T08:45:03.184Z,96406.7
2018-08-10T08:46:06.697Z,96411.5
2018-08-10T08:47:09.660Z,96413.9
2018-08-10T08:48:12.134Z,96412.2
2018-08-10T08:49:14.335Z,96413.4
2018-08-10T08:50:16.595Z,96408.9
2018-08-10T08:51:19.062Z,96407.8
2018-08-10T08:52:21.235Z,96410.4
2018-08-10T08:53:23.400Z,96412.3
2018-08-10T08:54:25.872Z,96411.5
2018-08-10T08:55:28.052Z,96419
2018-08-10T08:56:30.499Z,96416.1
2018-08-10T08:57:32.407Z,96418.5
2018-08-10T08:58:34.580Z,96415.7
2018-08-10T08:59:37.032Z,96410
2018-08-10T09:00:39.199Z,96414.8
2018-08-10T09:01:41.389Z,96413.9
2018-08-10T09:02:43.572Z,96414.4
2018-08-10T09:03:45.210Z,96414.4
2018-08-10T09:04:47.387Z,96419.5
2018-08-10T09:05:49.838Z,96414.6
2018-08-10T09:06:52.019Z,96422.5
2018-08-10T09:07:53.928Z,96425.7
2018-08-10T09:08:56.123Z,96425.4
2018-08-10T09:09:58.403Z,96420.9
2018-08-10T09:11:00.576Z,96418.3
2018-08-10T09:12:02.194Z,96422
2018-08-10T09:13:04.644Z,96421.7
2018-08-10T09:14:06.531Z,96420.8
2018-08-10T09:15:08.975Z,96423.3
2018-08-10T09:16:11.431Z,96422.9
2018-08-10T09:17:14.398Z,96417
2018-08-10T09:18:16.788Z,96416
2018-08-10T09:19:18.962Z,96416.3
2018-08-10T09:20:21.743Z,96415.9
2018-08-10T09:21:24.153Z,96419.9
2018-08-10T09:22:25.781Z,96421.7
2018-08-10T09:23:28.372Z,96419.9
2018-08-10T09:24:30.902Z,96427.7
2018-08-10T09:25:33.091Z,96425.2
2018-08-10T09:26:34.726Z,96426.7
2018-08-10T09:27:36.611Z,96423.3
2018-08-10T09:28:39.048Z,96428
2018-08-10T09:29:41.217Z,96430.2
2018-08-10T09:30:43.673Z,96429.5
2018-08-10T09:31:45.851Z,96429.7
2018-08-10T09:32:48.305Z,96431.8
2018-08-10T09:33:50.472Z,96432.8
2018-08-10T09:34:52.914Z,96433.2
2018-08-10T09:35:55.065Z,96435.6
2018-08-10T09:36:56.941Z,96435.1
2018-08-10T09:37:59.110Z,96434.6
2018-08-10T09:39:01.580Z,96435.6
2018-08-10T09:40:03.763Z,96437.4
2018-08-10T09:41:05.660Z,96437.6
2018-08-10T09:42:08.253Z,96443.4
2018-08-10T09:43:10.824Z,96442.7
2018-08-10T09:44:12.844Z,96443.6
2018-08-10T09:45:15.213Z,96442.5
2018-08-10T09:46:17.662Z,96443.4
2018-08-10T09:47:20.115Z,96437.3
2018-08-10T09:48:22.033Z,96439.2
2018-08-10T09:49:24.485Z,96431.2
2018-08-10T09:50:26.359Z,96436.3
2018-08-10T09:51:28.510Z,96438
2018-08-10T09:52:30.973Z,96435
2018-08-10T09:53:33.423Z,96434.2
2018-08-10T09:54:35.071Z,96437.7
2018-08-10T09:55:37.513Z,96438
2018-08-10T09:56:39.967Z,96437.5
2018-08-10T09:57:42.427Z,96439.6
2018-08-10T09:58:44.866Z,96440.1
2018-08-10T09:59:47.219Z,96441.1
2018-08-10T10:00:49.438Z,96442.1
2018-08-10T10:01:51.600Z,96446.4
2018-08-10T10:02:53.778Z,96443.7
2018-08-10T10:03:56.231Z,96442.2
2018-08-10T10:04:58.688Z,96448
2018-08-10T10:06:00.867Z,96446.9
2018-08-10T10:07:03.312Z,96446.4
2018-08-10T10:08:05.779Z,96445.4
2018-08-10T10:09:07.937Z,96446.5
2018-08-10T10:10:10.152Z,96440.1
2018-08-10T10:11:12.618Z,96441.2
2018-08-10T10:12:14.768Z,96442.7
2018-08-10T10:13:17.218Z,96445.4
2018-08-10T10:14:19.369Z,96446.2
2018-08-10T10:15:21.566Z,96450
2018-08-10T10:16:24.009Z,96447
2018-08-10T10:17:26.432Z,96448.1
2018-08-10T10:18:29.003Z,96445.8
2018-08-10T10:19:31.457Z,96446.3
2018-08-10T10:20:33.072Z,96443.4
2018-08-10T10:21:35.266Z,96446
2018-08-10T10:22:37.458Z,96438.2
2018-08-10T10:23:39.639Z,96440.5
2018-08-10T10:24:41.839Z,96439.6
2018-08-10T10:25:44.017Z,96439.3
2018-08-10T10:26:46.193Z,96442.4
2018-08-10T10:27:48.641Z,96440.4
2018-08-10T10:28:51.076Z,96442.8
2018-08-10T10:29:53.245Z,96444.4
2018-08-10T10:30:55.717Z,96442.5
2018-08-10T10:31:57.608Z,96440.8
2018-08-10T10:33:00.053Z,96439.4
2018-08-10T10:34:02.234Z,96435.8
2018-08-10T10:35:04.397Z,96436.4
2018-08-10T10:36:06.848Z,96435.3
2018-08-10T10:37:09.029Z,96433.1
2018-08-10T10:38:10.931Z,96435.3
2018-08-10T10:39:13.123Z,96432.9
2018-08-10T10:40:15.305Z,96434.7
2018-08-10T10:41:17.501Z,96431
2018-08-10T10:42:18.842Z,96432.5
2018-08-10T10:43:21.018Z,96431.1
2018-08-10T10:44:23.177Z,96436.1
2018-08-10T10:45:25.371Z,96432.3
2018-08-10T10:46:27.815Z,96434.4
2018-08-10T10:47:30.571Z,96436.7
2018-08-10T10:48:32.774Z,96434.6
2018-08-10T10:49:35.218Z,96435.2
2018-08-10T10:50:37.391Z,96432
2018-08-10T10:51:39.443Z,96432.3
2018-08-10T10:52:41.339Z,96433.1
2018-08-10T10:53:43.230Z,96429.2
2018-08-10T10:54:45.718Z,96430.1
2018-08-10T10:55:47.608Z,96426.7
2018-08-10T10:56:50.674Z,96418.7
2018-08-10T10:57:53.278Z,96419.2
2018-08-10T10:58:55.720Z,96418.5
2018-08-10T10:59:57.901Z,96420.5
2018-08-10T11:01:00.353Z,96423.8
2018-08-10T11:02:02.528Z,96422.9
2018-08-10T11:03:04.975Z,96425.7
2018-08-10T11:04:07.197Z,96424.2
2018-08-10T11:05:09.380Z,96429.1
2018-08-10T11:06:11.945Z,96431.1
2018-08-10T11:07:14.431Z,96432.8
2018-08-10T11:08:16.621Z,96434.4
2018-08-10T11:09:19.092Z,96434.6
2018-08-10T11:10:21.246Z,96434
2018-08-10T11:11:23.123Z,96435.4
2018-08-10T11:12:25.301Z,96437.2
2018-08-10T11:13:27.540Z,96434.2
2018-08-10T11:14:29.696Z,96432.7
2018-08-10T11:15:31.896Z,96428.4
2018-08-10T11:16:34.343Z,96428.6
2018-08-10T11:17:36.272Z,96430.1
2018-08-10T11:18:38.464Z,96429.8
2018-08-10T11:19:40.919Z,96429.7
2018-08-10T11:20:43.389Z,96425
2018-08-10T11:21:45.577Z,96417.8
2018-08-10T11:22:48.029Z,96425.3
2018-08-10T11:23:50.489Z,96420.5
2018-08-10T11:24:52.937Z,96423.6
2018-08-10T11:25:54.898Z,96424.6
2018-08-10T11:26:57.394Z,96426
2018-08-10T11:27:59.570Z,96427.9
2018-08-10T11:29:01.467Z,96427.2
2018-08-10T11:30:03.353Z,96425.8
2018-08-10T11:31:05.521Z,96427.9
2018-08-10T11:32:08.061Z,96427.1
2018-08-10T11:33:10.765Z,96422.1
2018-08-10T11:34:13.201Z,96426.2
2018-08-10T11:35:15.123Z,96425.5
2018-08-10T11:36:17.573Z,96426.9
2018-08-10T11:37:20.030Z,96431.5
2018-08-10T11:38:21.947Z,96431.8
2018-08-10T11:39:24.137Z,96430.5
2018-08-10T11:40:26.316Z,96429
2018-08-10T11:41:28.932Z,96428.5
2018-08-10T11:42:30.846Z,96429
2018-08-10T11:43:33.312Z,96427.7
2018-08-10T11:44:35.757Z,96426.7
2018-08-10T11:45:37.646Z,96428.1
2018-08-10T11:46:40.090Z,96428.7
2018-08-10T11:47:42.537Z,96424.9
2018-08-10T11:48:44.470Z,96422.1
2018-08-10T11:49:46.639Z,96424.2
2018-08-10T11:50:49.104Z,96420.6
2018-08-10T11:51:51.603Z,96419.4
2018-08-10T11:52:54.041Z,96417.6
2018-08-10T11:53:56.495Z,96420.2
2018-08-10T11:54:58.402Z,96420.3
2018-08-10T11:56:00.857Z,96424.3
2018-08-10T11:57:02.773Z,96418.4
2018-08-10T11:58:04.985Z,96419.4
2018-08-10T11:59:06.658Z,96421
2018-08-10T12:00:09.246Z,96419.3
2018-08-10T12:01:11.426Z,96421.7
2018-08-10T12:02:13.624Z,96420.5
2018-08-10T12:03:15.814Z,96410.1
2018-08-10T12:04:18.005Z,96417.4
2018-08-10T12:05:20.189Z,96413.8
2018-08-10T12:06:22.830Z,96412.6
2018-08-10T12:07:25.479Z,96412.1
2018-08-10T12:08:27.822Z,96408.8
2018-08-10T12:09:30.280Z,96413.7
2018-08-10T12:10:32.734Z,96416
2018-08-10T12:11:34.927Z,96411.7
2018-08-10T12:12:37.079Z,96418.5
2018-08-10T12:13:38.904Z,96421.2
2018-08-10T12:14:41.074Z,96421
2018-08-10T12:15:43.248Z,96421.8
2018-08-10T12:16:45.428Z,96417.1
2018-08-10T12:17:47.686Z,96410
2018-08-10T12:18:50.152Z,96407.2
2018-08-10T12:19:52.320Z,96417.4
2018-08-10T12:20:54.488Z,96420.4
2018-08-10T12:21:56.952Z,96410.1
2018-08-10T12:22:59.397Z,96412.2
2018-08-10T12:24:01.864Z,96413.8
2018-08-10T12:25:04.417Z,96413.8
2018-08-10T12:26:06.657Z,96410.1
2018-08-10T12:27:08.869Z,96409
2018-08-10T12:28:11.308Z,96413.4
2018-08-10T12:29:13.217Z,96413.1
2018-08-10T12:30:15.693Z,96416.3
2018-08-10T12:31:17.837Z,96416.5
2018-08-10T12:32:19.590Z,96414.3
2018-08-10T12:33:21.848Z,96417.5
2018-08-10T12:34:23.754Z,96416.3
2018-08-10T12:35:25.909Z,96416.6
2018-08-10T12:36:28.086Z,96408.8
2018-08-10T12:37:30.529Z,96410.5